Time;durP1;ratioP1;P1;durP2;ratioP2;P2;SDS_P1;SDS_P2;PMS_P1;PMS_P2;Temp;Humidity;BMP_temperature;BMP_pressure;BME280_temperature;BME280_humidity;BME280_pressure;Samples;Min_cycle;Max_cycle;Signal;HPM_P1;HPM_P2
2023/09/15 00:01:27;;;;;;;2.20;1.42;;;;;;;;;;6190546;23;20015;-89
2023/09/15 00:03:53;;;;;;;2.50;1.30;;;;;;;;;;6215229;23;20345;-90
2023/09/15 00:06:19;;;;;;;2.90;1.67;;;;;;;;;;6215623;23;20071;-90
2023/09/15 00:08:45;;;;;;;5.63;2.10;;;;;;;;;;6243115;23;20326;-90
2023/09/15 00:11:15;;;;;;;3.42;1.45;;;;;;;;;;6241849;23;20012;-89
2023/09/15 00:13:41;;;;;;;1.77;1.33;;;;;;;;;;6242638;23;20386;-90
2023/09/15 00:16:08;;;;;;;2.95;1.33;;;;;;;;;;6242101;23;20020;-90
2023/09/15 00:18:35;;;;;;;2.75;1.50;;;;;;;;;;6242493;23;20009;-90
2023/09/15 00:21:01;;;;;;;2.00;1.25;;;;;;;;;;6241706;23;20020;-91
2023/09/15 00:23:28;;;;;;;1.67;1.45;;;;;;;;;;6241797;23;20319;-90
2023/09/15 00:25:54;;;;;;;2.50;1.60;;;;;;;;;;6242271;23;20371;-90
2023/09/15 00:28:21;;;;;;;2.67;1.40;;;;;;;;;;6215289;23;20012;-90
2023/09/15 00:30:50;;;;;;;1.90;1.15;;;;;;;;;;6242433;23;20442;-89
2023/09/15 00:33:16;;;;;;;1.63;1.50;;;;;;;;;;6215545;23;20016;-90
2023/09/15 00:35:42;;;;;;;2.55;1.25;;;;;;;;;;6245192;23;20008;-89
2023/09/15 00:38:09;;;;;;;4.13;1.50;;;;;;;;;;6215355;23;20054;-90
2023/09/15 00:40:36;;;;;;;3.97;1.70;;;;;;;;;;6215677;23;20027;-89
2023/09/15 00:43:02;;;;;;;5.70;1.60;;;;;;;;;;6215067;23;20342;-90
2023/09/15 00:45:28;;;;;;;2.25;1.38;;;;;;;;;;6241365;23;20058;-90
2023/09/15 00:47:56;;;;;;;3.17;1.60;;;;;;;;;;6242092;23;20047;-89
2023/09/15 00:50:24;;;;;;;2.22;1.60;;;;;;;;;;6241844;23;20016;-90
2023/09/15 00:52:52;;;;;;;3.28;1.35;;;;;;;;;;6215479;23;20019;-90
2023/09/15 00:55:21;;;;;;;3.70;1.52;;;;;;;;;;6242379;23;20020;-89
2023/09/15 00:57:51;;;;;;;2.72;1.65;;;;;;;;;;6242826;23;20009;-89
2023/09/15 01:00:20;;;;;;;5.53;1.73;;;;;;;;;;6214946;23;20348;-90
2023/09/15 01:02:47;;;;;;;3.50;1.45;;;;;;;;;;6216186;23;20024;-89
2023/09/15 01:05:19;;;;;;;1.63;1.25;;;;;;;;;;6214564;23;20024;-89
2023/09/15 01:07:46;;;;;;;2.13;1.60;;;;;;;;;;6214951;23;20016;-90
2023/09/15 01:10:14;;;;;;;2.92;1.52;;;;;;;;;;6241040;23;20461;-89
2023/09/15 01:12:40;;;;;;;2.85;1.45;;;;;;;;;;6242603;23;20035;-89
2023/09/15 01:15:07;;;;;;;3.92;1.58;;;;;;;;;;6215073;23;20012;-88
2023/09/15 01:17:39;;;;;;;3.90;1.40;;;;;;;;;;6242643;22;20023;-90
2023/09/15 01:20:09;;;;;;;2.13;1.20;;;;;;;;;;6215426;23;20467;-90
2023/09/15 01:22:41;;;;;;;2.20;1.52;;;;;;;;;;6215977;23;20022;-90
2023/09/15 01:25:16;;;;;;;1.65;1.40;;;;;;;;;;6242508;23;20009;-89
2023/09/15 01:27:46;;;;;;;3.55;1.60;;;;;;;;;;6215999;23;20047;-90
2023/09/15 01:30:12;;;;;;;2.33;1.48;;;;;;;;;;6214302;23;20042;-89
2023/09/15 01:32:41;;;;;;;2.70;1.58;;;;;;;;;;6216155;23;20230;-90
2023/09/15 01:35:07;;;;;;;2.30;1.35;;;;;;;;;;6242611;23;20012;-90
2023/09/15 01:37:33;;;;;;;4.35;1.70;;;;;;;;;;6215704;23;20023;-91
2023/09/15 01:39:59;;;;;;;5.15;1.58;;;;;;;;;;6242191;23;20008;-91
2023/09/15 01:42:26;;;;;;;5.43;1.75;;;;;;;;;;6215305;23;20012;-89
2023/09/15 01:44:54;;;;;;;2.65;1.70;;;;;;;;;;6214952;23;20405;-90
2023/09/15 01:47:21;;;;;;;3.50;1.50;;;;;;;;;;6215411;23;20330;-90
2023/09/15 01:49:48;;;;;;;3.20;1.42;;;;;;;;;;6215733;23;20042;-90
2023/09/15 01:52:14;;;;;;;1.85;1.33;;;;;;;;;;6213700;23;20038;-91
2023/09/15 01:54:40;;;;;;;5.15;1.52;;;;;;;;;;6215650;23;20016;-90
2023/09/15 01:57:06;;;;;;;1.92;1.42;;;;;;;;;;6189735;23;20446;-91
2023/09/15 01:59:34;;;;;;;3.05;1.30;;;;;;;;;;6214882;23;20086;-90
2023/09/15 02:02:00;;;;;;;2.65;1.48;;;;;;;;;;6214936;23;20023;-89
2023/09/15 02:04:26;;;;;;;3.90;1.63;;;;;;;;;;6215252;23;20020;-90
2023/09/15 02:06:52;;;;;;;2.88;1.90;;;;;;;;;;6242455;23;20020;-90
2023/09/15 02:09:19;;;;;;;1.63;1.50;;;;;;;;;;6215032;23;20559;-89
2023/09/15 02:11:44;;;;;;;3.72;1.48;;;;;;;;;;6215634;23;20016;-90
2023/09/15 02:14:10;;;;;;;3.03;1.30;;;;;;;;;;6240311;23;20020;-90
2023/09/15 02:16:36;;;;;;;3.38;1.95;;;;;;;;;;6242155;23;20020;-90
2023/09/15 02:19:03;;;;;;;3.65;1.88;;;;;;;;;;6214818;23;20070;-90
2023/09/15 02:21:29;;;;;;;2.83;1.40;;;;;;;;;;6214918;23;20393;-89
2023/09/15 02:23:55;;;;;;;1.77;1.35;;;;;;;;;;6241481;23;20023;-88
2023/09/15 02:26:22;;;;;;;1.25;1.15;;;;;;;;;;6242401;23;20015;-90
2023/09/15 02:28:48;;;;;;;5.15;2.28;;;;;;;;;;6243346;23;20381;-91
2023/09/15 02:31:14;;;;;;;2.30;1.20;;;;;;;;;;6242381;23;20027;-89
2023/09/15 02:33:40;;;;;;;2.53;1.52;;;;;;;;;;6242376;23;20337;-90
2023/09/15 02:36:06;;;;;;;2.50;1.30;;;;;;;;;;6241587;23;20109;-89
2023/09/15 02:38:34;;;;;;;4.07;1.45;;;;;;;;;;6214397;23;20012;-90
2023/09/15 02:41:00;;;;;;;1.95;1.35;;;;;;;;;;6241427;23;20083;-90
2023/09/15 02:43:26;;;;;;;2.58;1.58;;;;;;;;;;6241687;23;20039;-90
2023/09/15 02:45:52;;;;;;;4.05;1.67;;;;;;;;;;6240446;23;20035;-90
2023/09/15 02:48:17;;;;;;;4.28;1.38;;;;;;;;;;6240737;23;20047;-89
2023/09/15 02:50:45;;;;;;;3.20;1.63;;;;;;;;;;6214884;23;20292;-90
2023/09/15 02:53:11;;;;;;;2.70;1.35;;;;;;;;;;6214058;23;20012;-90
2023/09/15 02:55:40;;;;;;;2.10;1.90;;;;;;;;;;6215201;23;20016;-91
2023/09/15 02:58:06;;;;;;;4.47;1.98;;;;;;;;;;6213040;23;20015;-90
2023/09/15 03:00:32;;;;;;;5.45;2.20;;;;;;;;;;6214067;23;20066;-90
2023/09/15 03:02:58;;;;;;;3.40;1.80;;;;;;;;;;6213557;23;20023;-90
2023/09/15 03:05:26;;;;;;;2.38;1.42;;;;;;;;;;6214033;23;20322;-90
2023/09/15 03:07:52;;;;;;;4.18;1.80;;;;;;;;;;6214597;23;20023;-90
2023/09/15 03:10:18;;;;;;;3.25;1.60;;;;;;;;;;6213886;23;20039;-90
2023/09/15 03:12:44;;;;;;;5.15;2.45;;;;;;;;;;6242119;23;20008;-91
2023/09/15 03:15:11;;;;;;;1.75;1.55;;;;;;;;;;6240607;23;20012;-91
2023/09/15 03:17:37;;;;;;;2.90;1.98;;;;;;;;;;6242048;23;20020;-90
2023/09/15 03:20:15;;;;;;;2.65;1.85;;;;;;;;;;6241331;23;20016;-90
2023/09/15 03:22:42;;;;;;;6.07;2.20;;;;;;;;;;6214873;23;20008;-90
2023/09/15 03:25:08;;;;;;;2.78;1.48;;;;;;;;;;6213071;23;20024;-90
2023/09/15 03:27:34;;;;;;;5.50;2.15;;;;;;;;;;6242175;23;20306;-91
2023/09/15 03:30:00;;;;;;;2.95;2.13;;;;;;;;;;6213981;23;20048;-90
2023/09/15 03:32:26;;;;;;;3.05;1.60;;;;;;;;;;6189325;23;20016;-90
2023/09/15 03:34:52;;;;;;;3.10;2.08;;;;;;;;;;6241383;23;20034;-91
2023/09/15 03:37:18;;;;;;;4.45;2.00;;;;;;;;;;6214084;23;20016;-90
2023/09/15 03:39:44;;;;;;;3.15;1.65;;;;;;;;;;6213688;23;20326;-91
2023/09/15 03:42:10;;;;;;;2.78;2.10;;;;;;;;;;6240659;23;20031;-90
2023/09/15 03:44:36;;;;;;;2.53;1.83;;;;;;;;;;6214832;23;20027;-90
2023/09/15 03:47:02;;;;;;;3.08;1.90;;;;;;;;;;6214050;23;20027;-91
2023/09/15 03:49:28;;;;;;;3.28;2.15;;;;;;;;;;6241846;23;20020;-91
2023/09/15 03:51:56;;;;;;;2.72;1.83;;;;;;;;;;6241141;23;20096;-91
2023/09/15 03:54:24;;;;;;;2.47;2.05;;;;;;;;;;6240493;23;20434;-92
2023/09/15 03:56:50;;;;;;;3.33;2.13;;;;;;;;;;6214436;23;20012;-91
2023/09/15 03:59:16;;;;;;;5.10;2.15;;;;;;;;;;6240830;23;20190;-90
2023/09/15 04:01:42;;;;;;;2.20;1.70;;;;;;;;;;6214721;23;20090;-91
2023/09/15 04:04:08;;;;;;;3.30;1.92;;;;;;;;;;6213774;23;20345;-91
2023/09/15 04:06:35;;;;;;;2.33;1.80;;;;;;;;;;6214455;23;20422;-90
2023/09/15 04:09:07;;;;;;;2.95;2.30;;;;;;;;;;6212941;23;20016;-90
2023/09/15 04:11:34;;;;;;;5.32;2.38;;;;;;;;;;6213289;23;20017;-89
2023/09/15 04:14:00;;;;;;;3.72;2.10;;;;;;;;;;6213237;23;20016;-90
2023/09/15 04:16:25;;;;;;;3.45;2.05;;;;;;;;;;6240768;23;20315;-90
2023/09/15 04:18:52;;;;;;;4.35;1.98;;;;;;;;;;6214356;23;20008;-91
2023/09/15 04:21:17;;;;;;;2.92;2.00;;;;;;;;;;6214646;23;20038;-91
2023/09/15 04:23:43;;;;;;;4.07;1.90;;;;;;;;;;6216656;23;20071;-90
2023/09/15 04:26:09;;;;;;;2.97;1.88;;;;;;;;;;6214062;23;20087;-90
2023/09/15 04:28:35;;;;;;;5.70;2.22;;;;;;;;;;6241497;23;20016;-91
2023/09/15 04:31:03;;;;;;;5.30;1.80;;;;;;;;;;6213734;23;20027;-91
2023/09/15 04:33:29;;;;;;;3.58;1.83;;;;;;;;;;6241501;23;20192;-90
2023/09/15 04:35:55;;;;;;;6.03;2.25;;;;;;;;;;6240843;23;20047;-91
2023/09/15 04:38:21;;;;;;;3.20;1.95;;;;;;;;;;6240836;23;20019;-90
2023/09/15 04:40:48;;;;;;;3.72;1.90;;;;;;;;;;6241871;23;20012;-91
2023/09/15 04:43:16;;;;;;;3.95;2.05;;;;;;;;;;6213706;23;20551;-90
2023/09/15 04:45:42;;;;;;;2.33;2.13;;;;;;;;;;6216760;23;20073;-92
2023/09/15 04:48:08;;;;;;;2.08;1.83;;;;;;;;;;6242650;23;20502;-93
2023/09/15 04:50:37;;;;;;;2.33;1.92;;;;;;;;;;6191269;23;20012;-91
2023/09/15 04:53:07;;;;;;;3.58;2.13;;;;;;;;;;6214696;23;20015;-90
2023/09/15 04:55:33;;;;;;;2.85;1.67;;;;;;;;;;6191486;23;20088;-91
2023/09/15 04:58:00;;;;;;;5.18;2.05;;;;;;;;;;6214874;23;20012;-90
2023/09/15 05:00:27;;;;;;;3.38;1.90;;;;;;;;;;6216078;23;20073;-90
2023/09/15 05:02:53;;;;;;;2.88;1.83;;;;;;;;;;6215906;23;20030;-90
2023/09/15 05:05:19;;;;;;;2.83;1.63;;;;;;;;;;6215960;23;20392;-94
2023/09/15 05:07:45;;;;;;;1.70;1.60;;;;;;;;;;6243624;23;20307;-88
2023/09/15 05:10:11;;;;;;;3.60;1.95;;;;;;;;;;6215088;23;20019;-88
2023/09/15 05:12:37;;;;;;;1.92;1.58;;;;;;;;;;6214440;23;20012;-89
2023/09/15 05:15:04;;;;;;;3.75;2.10;;;;;;;;;;6192629;23;20015;-94
2023/09/15 05:17:30;;;;;;;4.40;2.00;;;;;;;;;;6218404;23;20027;-94
2023/09/15 05:19:56;;;;;;;3.90;1.60;;;;;;;;;;6216484;23;20019;-91
2023/09/15 05:22:23;;;;;;;4.03;1.67;;;;;;;;;;6243277;23;20016;-92
2023/09/15 05:24:49;;;;;;;2.78;1.80;;;;;;;;;;6244574;23;20016;-95
2023/09/15 05:27:15;;;;;;;2.88;2.30;;;;;;;;;;6244805;23;20069;-95
2023/09/15 05:29:41;;;;;;;2.25;1.95;;;;;;;;;;6221925;23;20091;-94
2023/09/15 05:32:07;;;;;;;3.75;1.92;;;;;;;;;;6245690;23;20702;-95
2023/09/15 05:34:33;;;;;;;5.63;2.10;;;;;;;;;;6217846;23;20373;-94
2023/09/15 05:36:59;;;;;;;3.78;1.90;;;;;;;;;;6217085;23;20012;-94
2023/09/15 05:39:25;;;;;;;5.05;1.67;;;;;;;;;;6217696;23;20079;-93
2023/09/15 05:41:51;;;;;;;3.63;1.85;;;;;;;;;;6216436;23;20027;-91
2023/09/15 05:44:17;;;;;;;2.97;1.58;;;;;;;;;;6216230;23;20019;-93
2023/09/15 05:46:43;;;;;;;2.90;1.63;;;;;;;;;;6219321;23;20016;-94
2023/09/15 05:49:09;;;;;;;3.08;1.90;;;;;;;;;;6241921;23;20091;-90
2023/09/15 05:51:35;;;;;;;2.90;1.75;;;;;;;;;;6216661;23;20050;-92
2023/09/15 05:54:02;;;;;;;2.78;1.83;;;;;;;;;;6217241;23;20714;-92
2023/09/15 05:56:29;;;;;;;2.92;2.10;;;;;;;;;;6243366;23;20019;-91
2023/09/15 05:58:55;;;;;;;2.33;1.70;;;;;;;;;;6244924;23;20074;-91
2023/09/15 06:01:21;;;;;;;5.43;3.20;;;;;;;;;;6244372;23;20016;-92
2023/09/15 06:03:50;;;;;;;4.15;2.67;;;;;;;;;;6249253;23;20091;-93
2023/09/15 06:06:17;;;;;;;2.58;2.00;;;;;;;;;;6250079;23;20012;-93
2023/09/15 06:08:43;;;;;;;2.30;1.80;;;;;;;;;;6244785;23;20345;-92
2023/09/15 06:11:09;;;;;;;4.90;2.08;;;;;;;;;;6191854;23;20368;-93
2023/09/15 06:13:35;;;;;;;5.05;2.15;;;;;;;;;;6244098;23;20099;-94
2023/09/15 06:16:03;;;;;;;3.22;1.70;;;;;;;;;;6244502;23;20457;-92
2023/09/15 06:18:29;;;;;;;3.42;1.85;;;;;;;;;;6219234;23;20031;-90
2023/09/15 06:20:56;;;;;;;2.85;1.85;;;;;;;;;;6244447;23;20024;-92
2023/09/15 06:23:22;;;;;;;2.75;2.28;;;;;;;;;;6217438;23;20050;-91
2023/09/15 06:25:50;;;;;;;5.55;2.28;;;;;;;;;;6218471;23;20346;-94
2023/09/15 06:28:16;;;;;;;3.50;2.33;;;;;;;;;;6217269;23;20012;-94
2023/09/15 06:30:42;;;;;;;5.22;2.25;;;;;;;;;;6243609;23;20020;-92
2023/09/15 06:33:08;;;;;;;3.30;2.38;;;;;;;;;;6242097;23;20024;-92
2023/09/15 06:35:34;;;;;;;4.57;2.63;;;;;;;;;;6215123;23;20024;-92
2023/09/15 06:38:00;;;;;;;3.63;2.08;;;;;;;;;;6242390;23;20386;-93
2023/09/15 06:40:27;;;;;;;4.05;2.75;;;;;;;;;;6215808;23;20012;-90
2023/09/15 06:42:53;;;;;;;4.20;2.30;;;;;;;;;;6240188;23;20449;-90
2023/09/15 06:45:19;;;;;;;4.30;2.33;;;;;;;;;;6241192;23;20093;-86
2023/09/15 06:47:45;;;;;;;3.15;2.13;;;;;;;;;;6214280;23;20017;-85
2023/09/15 06:50:11;;;;;;;2.72;2.17;;;;;;;;;;6241736;23;20027;-87
2023/09/15 06:52:37;;;;;;;2.75;2.17;;;;;;;;;;6214465;23;20044;-87
2023/09/15 06:55:03;;;;;;;5.20;2.90;;;;;;;;;;6219102;23;20330;-96
2023/09/15 06:57:29;;;;;;;4.50;2.30;;;;;;;;;;6227872;23;20403;-95
2023/09/15 06:59:55;;;;;;;3.35;2.25;;;;;;;;;;6246832;23;20023;-95
2023/09/15 07:02:21;;;;;;;2.35;1.95;;;;;;;;;;6246009;23;20020;-92
2023/09/15 07:04:47;;;;;;;2.90;2.25;;;;;;;;;;6243563;23;20381;-93
2023/09/15 07:07:13;;;;;;;4.18;2.03;;;;;;;;;;6241034;23;20023;-89
2023/09/15 07:09:39;;;;;;;3.05;2.05;;;;;;;;;;6240466;23;20019;-93
2023/09/15 07:12:06;;;;;;;4.95;2.88;;;;;;;;;;6213951;23;20012;-90
2023/09/15 07:14:32;;;;;;;3.42;2.40;;;;;;;;;;6218077;23;20020;-91
2023/09/15 07:16:58;;;;;;;5.78;2.08;;;;;;;;;;6218879;23;20031;-93
2023/09/15 07:19:24;;;;;;;3.40;1.92;;;;;;;;;;6243711;23;20023;-93
2023/09/15 07:21:50;;;;;;;3.10;2.13;;;;;;;;;;6250057;23;20066;-92
2023/09/15 07:24:16;;;;;;;2.53;2.03;;;;;;;;;;6216618;23;20020;-92
2023/09/15 07:26:42;;;;;;;2.88;1.70;;;;;;;;;;6218838;23;20090;-92
2023/09/15 07:29:08;;;;;;;2.45;1.92;;;;;;;;;;6218204;23;20023;-94
2023/09/15 07:31:35;;;;;;;3.83;2.55;;;;;;;;;;6216510;23;20087;-93
2023/09/15 07:34:01;;;;;;;3.00;1.98;;;;;;;;;;6218213;23;20027;-93
2023/09/15 07:36:27;;;;;;;3.05;2.08;;;;;;;;;;6245727;23;20054;-93
2023/09/15 07:38:53;;;;;;;3.92;1.77;;;;;;;;;;6245076;23;20008;-93
2023/09/15 07:41:19;;;;;;;3.08;2.15;;;;;;;;;;6218333;23;20020;-93
2023/09/15 07:43:45;;;;;;;3.22;2.08;;;;;;;;;;6247619;23;20101;-93
2023/09/15 07:46:15;;;;;;;4.50;2.13;;;;;;;;;;6215375;23;20350;-93
2023/09/15 07:48:41;;;;;;;4.72;2.53;;;;;;;;;;6219764;23;20398;-93
2023/09/15 07:51:07;;;;;;;2.78;1.85;;;;;;;;;;6218106;23;20036;-92
2023/09/15 07:53:33;;;;;;;4.68;2.00;;;;;;;;;;6216702;23;20016;-94
2023/09/15 07:55:59;;;;;;;3.83;2.35;;;;;;;;;;6215195;23;20012;-89
2023/09/15 07:58:25;;;;;;;4.72;1.98;;;;;;;;;;6219946;23;20442;-96
2023/09/15 08:00:53;;;;;;;3.72;2.20;;;;;;;;;;6216240;23;20024;-89
2023/09/15 08:03:19;;;;;;;5.40;2.17;;;;;;;;;;6214047;23;20020;-93
2023/09/15 08:05:45;;;;;;;4.90;1.95;;;;;;;;;;6215028;23;20016;-88
2023/09/15 08:08:11;;;;;;;3.42;2.10;;;;;;;;;;6213703;23;20341;-89
2023/09/15 08:10:37;;;;;;;2.78;1.38;;;;;;;;;;6213456;23;20016;-90
2023/09/15 08:13:03;;;;;;;4.90;2.10;;;;;;;;;;6212629;23;20343;-89
2023/09/15 08:15:29;;;;;;;5.13;1.90;;;;;;;;;;6212095;23;20039;-89
2023/09/15 08:17:56;;;;;;;2.63;1.80;;;;;;;;;;6213467;23;20024;-88
2023/09/15 08:20:22;;;;;;;3.60;2.10;;;;;;;;;;6213657;23;20012;-90
2023/09/15 08:22:48;;;;;;;3.85;1.75;;;;;;;;;;6243997;23;20401;-89
2023/09/15 08:25:15;;;;;;;2.33;1.65;;;;;;;;;;6216861;23;20026;-90
2023/09/15 08:27:44;;;;;;;1.80;1.58;;;;;;;;;;6243758;23;20091;-89
2023/09/15 08:30:11;;;;;;;2.72;1.80;;;;;;;;;;6216027;23;20338;-92
2023/09/15 08:32:38;;;;;;;2.90;1.23;;;;;;;;;;6219151;23;20019;-88
2023/09/15 08:35:04;;;;;;;3.75;1.77;;;;;;;;;;6245320;23;20008;-92
2023/09/15 08:37:31;;;;;;;2.28;1.52;;;;;;;;;;6219935;23;20012;-92
2023/09/15 08:39:57;;;;;;;4.57;1.65;;;;;;;;;;6217569;23;20369;-92
2023/09/15 08:42:27;;;;;;;3.33;1.58;;;;;;;;;;6217040;23;20095;-88
2023/09/15 08:44:53;;;;;;;5.53;1.90;;;;;;;;;;6189990;23;20115;-89
2023/09/15 08:47:20;;;;;;;6.22;2.03;;;;;;;;;;6215217;23;20027;-88
2023/09/15 08:49:47;;;;;;;3.30;1.60;;;;;;;;;;6216704;23;20012;-91
2023/09/15 08:52:16;;;;;;;3.22;1.40;;;;;;;;;;6217953;23;20019;-89
2023/09/15 08:54:42;;;;;;;2.78;1.50;;;;;;;;;;6217494;23;20016;-90
2023/09/15 08:57:09;;;;;;;2.42;1.25;;;;;;;;;;6215305;23;20027;-88
2023/09/15 08:59:35;;;;;;;2.63;1.27;;;;;;;;;;6242963;23;20012;-90
2023/09/15 09:02:01;;;;;;;3.15;1.35;;;;;;;;;;6212379;23;20389;-88
2023/09/15 09:04:27;;;;;;;3.63;1.48;;;;;;;;;;6242584;23;20027;-90
2023/09/15 09:06:53;;;;;;;6.47;1.55;;;;;;;;;;6217253;23;20024;-88
2023/09/15 09:09:20;;;;;;;2.85;1.13;;;;;;;;;;6242650;23;20016;-88
2023/09/15 09:11:46;;;;;;;2.30;1.27;;;;;;;;;;6243763;23;20008;-90
2023/09/15 09:14:12;;;;;;;2.78;1.05;;;;;;;;;;6240584;23;20082;-90
2023/09/15 09:16:39;;;;;;;3.17;1.23;;;;;;;;;;6215381;23;20513;-89
2023/09/15 09:19:06;;;;;;;2.85;1.20;;;;;;;;;;6243164;23;20047;-90
2023/09/15 09:21:34;;;;;;;3.30;1.50;;;;;;;;;;6215801;23;20119;-92
2023/09/15 09:24:00;;;;;;;2.28;1.08;;;;;;;;;;6190954;23;20022;-90
2023/09/15 09:26:27;;;;;;;2.15;0.95;;;;;;;;;;6215286;23;20083;-91
2023/09/15 09:28:54;;;;;;;3.10;1.15;;;;;;;;;;6215224;23;20338;-89
2023/09/15 09:31:24;;;;;;;5.55;1.52;;;;;;;;;;6213419;23;20066;-92
2023/09/15 09:33:50;;;;;;;3.85;1.30;;;;;;;;;;6215622;23;20656;-88
2023/09/15 09:36:17;;;;;;;1.77;0.85;;;;;;;;;;6214323;23;20016;-90
2023/09/15 09:38:44;;;;;;;1.15;1.02;;;;;;;;;;6216254;23;20338;-88
2023/09/15 09:41:11;;;;;;;4.18;1.50;;;;;;;;;;6241815;23;20020;-85
2023/09/15 09:43:40;;;;;;;3.13;1.00;;;;;;;;;;6241794;23;20012;-89
2023/09/15 09:46:07;;;;;;;1.67;0.90;;;;;;;;;;6240842;23;20016;-90
2023/09/15 09:48:36;;;;;;;3.40;1.38;;;;;;;;;;6241009;23;20023;-93
2023/09/15 09:51:02;;;;;;;2.25;1.35;;;;;;;;;;6242418;23;20016;-91
2023/09/15 09:53:32;;;;;;;6.13;1.55;;;;;;;;;;6242622;23;20046;-91
2023/09/15 09:55:59;;;;;;;2.00;1.13;;;;;;;;;;6242678;23;20043;-89
2023/09/15 09:58:25;;;;;;;1.83;1.20;;;;;;;;;;6240209;23;20016;-88
2023/09/15 10:00:51;;;;;;;2.03;1.00;;;;;;;;;;6240880;23;20095;-86
2023/09/15 10:03:18;;;;;;;2.13;1.00;;;;;;;;;;6214708;23;20020;-87
2023/09/15 10:05:44;;;;;;;1.30;0.82;;;;;;;;;;6216653;23;20024;-87
2023/09/15 10:08:10;;;;;;;3.47;1.30;;;;;;;;;;6214884;23;20012;-91
2023/09/15 10:10:41;;;;;;;3.13;1.15;;;;;;;;;;6242393;23;20016;-88
2023/09/15 10:13:07;;;;;;;2.90;1.50;;;;;;;;;;6215554;23;20016;-90
2023/09/15 10:15:35;;;;;;;1.60;1.08;;;;;;;;;;6241868;23;20418;-86
2023/09/15 10:18:02;;;;;;;2.58;1.10;;;;;;;;;;6239148;23;20023;-88
2023/09/15 10:20:28;;;;;;;1.48;1.13;;;;;;;;;;6240906;23;20012;-80
2023/09/15 10:22:54;;;;;;;2.50;1.30;;;;;;;;;;6214435;23;20131;-87
2023/09/15 10:25:21;;;;;;;2.60;1.23;;;;;;;;;;6213605;23;20110;-82
2023/09/15 10:27:47;;;;;;;3.03;1.20;;;;;;;;;;6213987;23;20008;-84
2023/09/15 10:30:13;;;;;;;1.58;1.00;;;;;;;;;;6214727;23;20435;-85
2023/09/15 10:32:39;;;;;;;2.40;1.10;;;;;;;;;;6215839;23;20349;-84
2023/09/15 10:35:06;;;;;;;5.28;2.20;;;;;;;;;;6214338;23;20012;-85
2023/09/15 10:37:36;;;;;;;2.60;1.20;;;;;;;;;;6214851;23;20365;-85
2023/09/15 10:40:02;;;;;;;2.83;1.10;;;;;;;;;;6240240;23;20370;-84
2023/09/15 10:42:28;;;;;;;2.80;1.20;;;;;;;;;;6241424;23;20470;-83
2023/09/15 10:44:54;;;;;;;3.83;1.27;;;;;;;;;;6241727;23;20329;-84
2023/09/15 10:47:21;;;;;;;1.80;1.13;;;;;;;;;;6241831;23;20086;-85
2023/09/15 10:49:51;;;;;;;3.00;1.20;;;;;;;;;;6214359;23;20039;-86
2023/09/15 10:52:18;;;;;;;2.80;1.30;;;;;;;;;;6240893;23;20020;-85
2023/09/15 10:54:44;;;;;;;1.80;1.20;;;;;;;;;;6240981;23;20338;-89
2023/09/15 10:57:10;;;;;;;1.50;1.02;;;;;;;;;;6212523;23;20026;-87
2023/09/15 10:59:36;;;;;;;1.92;1.23;;;;;;;;;;6214822;23;20341;-88
2023/09/15 11:02:02;;;;;;;1.95;1.13;;;;;;;;;;6213170;23;20016;-86
2023/09/15 11:04:29;;;;;;;2.28;1.10;;;;;;;;;;6241386;23;20055;-85
2023/09/15 11:06:55;;;;;;;1.70;0.82;;;;;;;;;;6240559;23;20087;-84
2023/09/15 11:09:22;;;;;;;1.33;0.95;;;;;;;;;;6214166;23;20353;-85
2023/09/15 11:11:49;;;;;;;3.03;0.80;;;;;;;;;;6242104;23;20368;-87
2023/09/15 11:14:19;;;;;;;1.75;0.80;;;;;;;;;;6241699;23;20023;-85
2023/09/15 11:16:46;;;;;;;2.08;1.10;;;;;;;;;;6214797;23;20016;-84
2023/09/15 11:19:16;;;;;;;1.98;0.90;;;;;;;;;;6213898;23;20024;-86
2023/09/15 11:21:42;;;;;;;3.30;0.90;;;;;;;;;;6215945;23;20079;-91
2023/09/15 11:24:11;;;;;;;2.03;0.82;;;;;;;;;;6213362;23;20047;-84
2023/09/15 11:26:58;;;;;;;4.05;1.23;;;;;;;;;;6214910;23;20291;-84
2023/09/15 11:29:29;;;;;;;2.70;0.93;;;;;;;;;;6214272;23;20008;-84
2023/09/15 11:31:56;;;;;;;2.50;0.90;;;;;;;;;;6240606;23;20062;-85
2023/09/15 11:34:22;;;;;;;2.60;1.10;;;;;;;;;;6241775;23;20008;-85
2023/09/15 11:36:50;;;;;;;1.65;1.02;;;;;;;;;;6214699;23;20117;-89
2023/09/15 11:39:16;;;;;;;2.58;1.08;;;;;;;;;;6240632;23;20047;-87
2023/09/15 11:41:53;;;;;;;2.95;1.38;;;;;;;;;;6241834;23;20019;-86
2023/09/15 11:44:20;;;;;;;1.75;0.85;;;;;;;;;;6214203;23;20016;-86
2023/09/15 11:46:46;;;;;;;1.50;0.80;;;;;;;;;;6242187;23;20075;-85
2023/09/15 11:49:13;;;;;;;2.42;1.33;;;;;;;;;;6240799;23;20337;-92
2023/09/15 11:51:40;;;;;;;4.03;0.98;;;;;;;;;;6214644;23;20012;-89
2023/09/15 11:54:06;;;;;;;2.83;0.95;;;;;;;;;;6240777;23;20015;-85
2023/09/15 11:56:32;;;;;;;0.93;0.75;;;;;;;;;;6214443;23;20070;-87
2023/09/15 11:58:58;;;;;;;1.92;0.95;;;;;;;;;;6241071;23;20035;-84
2023/09/15 12:01:25;;;;;;;2.85;1.20;;;;;;;;;;6241120;23;20012;-85
2023/09/15 12:03:52;;;;;;;2.22;1.00;;;;;;;;;;6241519;23;20047;-83
2023/09/15 12:06:19;;;;;;;3.17;1.27;;;;;;;;;;6240585;23;20462;-85
2023/09/15 12:08:49;;;;;;;2.13;1.10;;;;;;;;;;6241266;23;20311;-88
2023/09/15 12:11:16;;;;;;;1.92;1.55;;;;;;;;;;6213577;23;20031;-85
2023/09/15 12:13:42;;;;;;;3.67;1.10;;;;;;;;;;6241797;23;20035;-85
2023/09/15 12:16:16;;;;;;;2.10;0.98;;;;;;;;;;6240429;23;20012;-87
2023/09/15 12:18:44;;;;;;;1.50;0.98;;;;;;;;;;6242206;23;20087;-86
2023/09/15 12:21:11;;;;;;;3.40;1.10;;;;;;;;;;6213166;23;20016;-86
2023/09/15 12:23:37;;;;;;;2.83;1.10;;;;;;;;;;6240896;23;20023;-88
2023/09/15 12:26:04;;;;;;;1.65;0.85;;;;;;;;;;6213930;23;20087;-89
2023/09/15 12:28:30;;;;;;;1.98;0.95;;;;;;;;;;6241874;23;20012;-87
2023/09/15 12:30:59;;;;;;;2.53;1.00;;;;;;;;;;6240972;23;20020;-86
2023/09/15 12:33:29;;;;;;;1.55;0.80;;;;;;;;;;6241334;23;20012;-86
2023/09/15 12:35:56;;;;;;;4.13;1.20;;;;;;;;;;6213547;23;20012;-85
2023/09/15 12:38:22;;;;;;;2.00;1.10;;;;;;;;;;6240853;23;20019;-85
2023/09/15 12:40:50;;;;;;;2.72;1.08;;;;;;;;;;6241338;23;20019;-86
2023/09/15 12:43:16;;;;;;;2.85;1.42;;;;;;;;;;6213779;23;20020;-88
2023/09/15 12:45:42;;;;;;;1.90;0.93;;;;;;;;;;6242073;23;20024;-86
2023/09/15 12:48:11;;;;;;;2.47;0.95;;;;;;;;;;6213415;23;20020;-87
2023/09/15 12:50:38;;;;;;;1.70;1.05;;;;;;;;;;6213937;23;20016;-85
2023/09/15 12:53:04;;;;;;;2.80;0.98;;;;;;;;;;6188960;23;20023;-85
2023/09/15 12:55:31;;;;;;;1.50;0.95;;;;;;;;;;6241290;23;20042;-84
2023/09/15 12:57:57;;;;;;;2.17;1.30;;;;;;;;;;6240556;23;20024;-86
2023/09/15 13:00:23;;;;;;;2.38;0.90;;;;;;;;;;6241014;23;20015;-85
2023/09/15 13:02:49;;;;;;;1.75;1.20;;;;;;;;;;6241104;23;20019;-89
2023/09/15 13:05:15;;;;;;;1.58;1.08;;;;;;;;;;6240489;23;20024;-85
2023/09/15 13:07:44;;;;;;;3.30;1.38;;;;;;;;;;6243412;23;20062;-85
2023/09/15 13:10:10;;;;;;;2.72;1.10;;;;;;;;;;6215056;23;20393;-85
2023/09/15 13:12:37;;;;;;;1.77;1.00;;;;;;;;;;6243207;23;20013;-85
2023/09/15 13:15:03;;;;;;;4.10;1.10;;;;;;;;;;6215460;23;20008;-85
2023/09/15 13:17:29;;;;;;;1.63;1.10;;;;;;;;;;6242380;23;20098;-85
2023/09/15 13:19:55;;;;;;;2.40;1.55;;;;;;;;;;6214828;23;20012;-84
2023/09/15 13:22:22;;;;;;;2.80;1.30;;;;;;;;;;6242247;23;20020;-84
2023/09/15 13:24:49;;;;;;;2.50;1.35;;;;;;;;;;6215960;23;20020;-85
2023/09/15 13:27:15;;;;;;;2.63;1.30;;;;;;;;;;6214950;23;20051;-85
2023/09/15 13:29:41;;;;;;;2.38;1.23;;;;;;;;;;6216134;23;20016;-89
2023/09/15 13:32:07;;;;;;;3.30;1.70;;;;;;;;;;6215362;23;20023;-85
2023/09/15 13:34:33;;;;;;;3.03;1.25;;;;;;;;;;6242080;23;20093;-85
2023/09/15 13:36:59;;;;;;;2.40;1.10;;;;;;;;;;6242284;23;20083;-88
2023/09/15 13:39:25;;;;;;;2.58;0.95;;;;;;;;;;6215537;23;20456;-86
2023/09/15 13:41:51;;;;;;;3.80;1.25;;;;;;;;;;6242822;23;20078;-86
2023/09/15 13:44:17;;;;;;;2.60;1.20;;;;;;;;;;6242252;23;20020;-88
2023/09/15 13:46:43;;;;;;;2.47;1.48;;;;;;;;;;6216031;23;20048;-85
2023/09/15 13:49:11;;;;;;;1.88;1.27;;;;;;;;;;6241237;23;20020;-90
2023/09/15 13:51:37;;;;;;;3.17;1.02;;;;;;;;;;6216063;23;20055;-84
2023/09/15 13:54:06;;;;;;;2.65;1.33;;;;;;;;;;6242168;23;20013;-85
2023/09/15 13:56:32;;;;;;;1.90;1.00;;;;;;;;;;6242420;23;20016;-86
2023/09/15 13:58:58;;;;;;;1.60;1.23;;;;;;;;;;6214983;23;20074;-85
2023/09/15 14:01:26;;;;;;;2.45;1.38;;;;;;;;;;6242461;23;20019;-88
2023/09/15 14:03:52;;;;;;;2.80;1.30;;;;;;;;;;6214719;23;20015;-86
2023/09/15 14:06:19;;;;;;;2.30;1.30;;;;;;;;;;6216003;23;20073;-93
2023/09/15 14:08:46;;;;;;;2.92;1.63;;;;;;;;;;6191575;23;20334;-90
2023/09/15 14:11:12;;;;;;;2.35;1.20;;;;;;;;;;6214686;23;20337;-89
2023/09/15 14:13:38;;;;;;;3.30;1.58;;;;;;;;;;6242622;23;20012;-85
2023/09/15 14:16:04;;;;;;;3.45;1.70;;;;;;;;;;6215079;23;20017;-85
2023/09/15 14:18:30;;;;;;;3.38;1.50;;;;;;;;;;6214626;23;20071;-87
2023/09/15 14:20:58;;;;;;;4.60;2.05;;;;;;;;;;6215118;23;20039;-84
2023/09/15 14:23:25;;;;;;;3.38;1.42;;;;;;;;;;6215226;23;20012;-85
2023/09/15 14:25:51;;;;;;;3.20;1.50;;;;;;;;;;6189859;23;20012;-86
2023/09/15 14:28:17;;;;;;;1.92;1.33;;;;;;;;;;6241803;23;20310;-85
2023/09/15 14:30:43;;;;;;;2.58;1.33;;;;;;;;;;6215367;23;20012;-86
2023/09/15 14:33:09;;;;;;;3.20;1.38;;;;;;;;;;6189152;23;20016;-88
2023/09/15 14:35:35;;;;;;;2.08;1.25;;;;;;;;;;6215546;23;20017;-90
2023/09/15 14:38:01;;;;;;;3.65;1.35;;;;;;;;;;6214739;23;20016;-86
2023/09/15 14:40:27;;;;;;;2.50;1.50;;;;;;;;;;6215071;23;20387;-86